createdAt,value
2023-04-09T00:00:31.693Z,12.28
2023-04-09T00:03:07.429Z,12.31
2023-04-09T00:05:38.321Z,12.33
2023-04-09T00:08:06.144Z,12.31
2023-04-09T00:10:38.412Z,12.28
2023-04-09T00:13:07.821Z,12.23
2023-04-09T00:15:35.827Z,12.22
2023-04-09T00:18:03.777Z,12.22
2023-04-09T00:20:31.424Z,12.23
2023-04-09T00:22:58.703Z,12.22
2023-04-09T00:25:26.226Z,12.18
2023-04-09T00:27:54.293Z,12.15
2023-04-09T00:30:21.563Z,12.13
2023-04-09T00:32:50.410Z,12.11
2023-04-09T00:35:17.788Z,12.10
2023-04-09T00:37:45.465Z,12.07
2023-04-09T00:40:12.747Z,12.04
2023-04-09T00:42:41.390Z,12.03
2023-04-09T00:45:09.398Z,12.05
2023-04-09T00:47:37.649Z,12.06
2023-04-09T00:50:05.294Z,12.08
2023-04-09T00:52:33.781Z,12.10
2023-04-09T00:55:01.281Z,12.13
2023-04-09T00:57:28.913Z,12.14
2023-04-09T00:59:56.562Z,12.16
2023-04-09T01:02:24.141Z,12.15
2023-04-09T01:04:52.388Z,12.14
2023-04-09T01:07:20.385Z,12.16
2023-04-09T01:09:51.808Z,12.17
2023-04-09T01:12:38.205Z,12.12
2023-04-09T01:15:07.104Z,12.10
2023-04-09T01:17:46.037Z,12.10
2023-04-09T01:20:14.262Z,12.11
2023-04-09T01:23:00.523Z,12.09
2023-04-09T01:25:44.026Z,12.05
2023-04-09T01:28:16.015Z,12.02
2023-04-09T01:30:46.999Z,11.98
2023-04-09T01:33:14.997Z,11.92
2023-04-09T01:35:42.974Z,11.89
2023-04-09T01:38:10.932Z,11.87
2023-04-09T01:40:40.164Z,11.86
2023-04-09T01:43:07.691Z,11.86
2023-04-09T01:45:37.105Z,11.83
2023-04-09T01:48:04.761Z,11.77
2023-04-09T01:50:33.850Z,11.72
2023-04-09T01:53:01.307Z,11.70
2023-04-09T01:55:28.513Z,11.68
2023-04-09T01:57:55.847Z,11.68
2023-04-09T02:00:23.505Z,11.67
2023-04-09T02:03:01.934Z,11.64
2023-04-09T02:05:30.480Z,11.60
2023-04-09T02:08:00.483Z,11.59
2023-04-09T02:10:27.946Z,11.59
2023-04-09T02:12:55.602Z,11.59
2023-04-09T02:15:26.228Z,11.57
2023-04-09T02:17:55.374Z,11.57
2023-04-09T02:20:22.947Z,11.59
2023-04-09T02:22:50.485Z,11.60
2023-04-09T02:25:18.045Z,11.57
2023-04-09T02:27:45.497Z,11.51
2023-04-09T02:30:14.455Z,11.46
2023-04-09T02:32:41.936Z,11.45
2023-04-09T02:35:09.782Z,11.41
2023-04-09T02:37:37.335Z,11.42
2023-04-09T02:40:05.039Z,11.42
2023-04-09T02:42:33.270Z,11.41
2023-04-09T02:45:00.935Z,11.41
2023-04-09T02:47:30.412Z,11.43
2023-04-09T02:49:58.614Z,11.45
2023-04-09T02:52:26.585Z,11.46
2023-04-09T02:54:55.471Z,11.46
2023-04-09T02:57:22.759Z,11.45
2023-04-09T02:59:53.766Z,11.44
2023-04-09T03:02:22.709Z,11.43
2023-04-09T03:04:50.623Z,11.41
2023-04-09T03:07:17.875Z,11.41
2023-04-09T03:09:45.545Z,11.38
2023-04-09T03:12:12.898Z,11.37
2023-04-09T03:14:40.338Z,11.39
2023-04-09T03:17:08.835Z,11.38
2023-04-09T03:19:38.043Z,11.37
2023-04-09T03:22:06.023Z,11.36
2023-04-09T03:24:33.973Z,11.35
2023-04-09T03:27:03.166Z,11.34
2023-04-09T03:29:32.776Z,11.34
2023-04-09T03:32:00.634Z,11.35
2023-04-09T03:34:28.297Z,11.37
2023-04-09T03:36:56.880Z,11.39
2023-04-09T03:39:30.582Z,11.42
2023-04-09T03:41:58.556Z,11.45
2023-04-09T03:44:27.277Z,11.45
2023-04-09T03:47:06.059Z,11.42
2023-04-09T03:49:34.854Z,11.42
2023-04-09T03:52:08.242Z,11.46
2023-04-09T03:54:38.881Z,11.52
2023-04-09T03:57:11.859Z,11.56
2023-04-09T03:59:46.218Z,11.53
2023-04-09T04:02:14.565Z,11.52
2023-04-09T04:04:46.092Z,11.54
2023-04-09T04:07:15.507Z,11.56
2023-04-09T04:09:55.563Z,11.59
2023-04-09T04:12:25.778Z,11.63
2023-04-09T04:15:04.911Z,11.65
2023-04-09T04:17:58.919Z,11.67
2023-04-09T04:20:38.120Z,11.68
2023-04-09T04:23:23.738Z,11.75
2023-04-09T04:26:06.291Z,11.80
2023-04-09T04:28:36.604Z,11.84
2023-04-09T04:31:08.803Z,11.86
2023-04-09T04:33:38.410Z,11.90
2023-04-09T04:36:09.972Z,11.93
2023-04-09T04:38:41.250Z,11.97
2023-04-09T04:41:12.834Z,12.00
2023-04-09T04:43:46.364Z,12.00
2023-04-09T04:46:27.336Z,12.00
2023-04-09T04:48:55.231Z,12.01
2023-04-09T04:51:23.068Z,12.01
2023-04-09T04:54:01.690Z,12.03
2023-04-09T04:56:30.066Z,12.07
2023-04-09T04:59:07.367Z,12.12
2023-04-09T05:01:45.702Z,12.17
2023-04-09T05:04:13.630Z,12.20
2023-04-09T05:06:41.531Z,12.25
2023-04-09T05:09:11.694Z,12.30
2023-04-09T05:11:50.788Z,12.38
2023-04-09T05:14:24.160Z,12.43
2023-04-09T05:16:52.013Z,12.47
2023-04-09T05:19:21.847Z,12.50
2023-04-09T05:21:50.381Z,12.55
2023-04-09T05:24:21.959Z,12.59
2023-04-09T05:26:50.751Z,12.61
2023-04-09T05:29:19.123Z,12.64
2023-04-09T05:31:49.855Z,12.69
2023-04-09T05:34:43.260Z,12.73
2023-04-09T05:41:07.969Z,12.73
2023-04-09T05:43:38.005Z,12.74
2023-04-09T05:46:10.509Z,12.73
2023-04-09T05:48:39.735Z,12.74
2023-04-09T05:51:06.945Z,12.73
2023-04-09T05:53:34.647Z,12.74
2023-04-09T05:56:02.141Z,12.74
2023-04-09T05:58:40.513Z,12.72
2023-04-09T06:01:09.712Z,12.73
2023-04-09T06:03:37.122Z,12.76
2023-04-09T06:06:05.463Z,12.79
2023-04-09T06:08:35.174Z,12.81
2023-04-09T06:11:03.427Z,12.84
2023-04-09T06:13:31.115Z,12.84
2023-04-09T06:16:00.219Z,12.80
2023-04-09T06:18:29.075Z,12.76
2023-04-09T06:21:02.462Z,12.73
2023-04-09T06:23:32.602Z,12.65
2023-04-09T06:26:00.979Z,12.57
2023-04-09T06:28:28.566Z,12.52
2023-04-09T06:30:55.840Z,12.48
2023-04-09T06:33:23.787Z,12.41
2023-04-09T06:35:51.315Z,12.36
2023-04-09T06:38:19.861Z,12.34
2023-04-09T06:40:47.347Z,12.34
2023-04-09T06:43:18.192Z,12.37
2023-04-09T06:45:50.656Z,12.41
2023-04-09T06:48:17.933Z,12.43
2023-04-09T06:50:45.108Z,12.46
2023-04-09T06:53:14.102Z,12.52
2023-04-09T06:55:41.713Z,12.55
2023-04-09T06:58:10.814Z,12.54
2023-04-09T07:00:38.741Z,12.55
2023-04-09T07:03:15.215Z,12.56
2023-04-09T07:05:43.217Z,12.56
2023-04-09T07:08:11.301Z,12.57
2023-04-09T07:10:40.544Z,12.59
2023-04-09T07:13:12.646Z,12.61
2023-04-09T07:15:41.705Z,12.64
2023-04-09T07:18:11.548Z,12.69
2023-04-09T07:20:39.837Z,12.70
2023-04-09T07:23:07.694Z,12.72
2023-04-09T07:25:35.157Z,12.75
2023-04-09T07:28:02.861Z,12.80
2023-04-09T07:30:31.281Z,12.83
2023-04-09T07:32:59.671Z,12.86
2023-04-09T07:35:27.746Z,12.89
2023-04-09T07:37:55.726Z,12.92
2023-04-09T07:40:25.390Z,12.93
2023-04-09T07:42:53.496Z,12.94
2023-04-09T07:45:21.164Z,12.95
2023-04-09T07:47:50.474Z,12.97
2023-04-09T07:50:18.523Z,13.01
2023-04-09T07:52:47.153Z,13.01
2023-04-09T07:55:16.826Z,12.95
2023-04-09T07:57:46.135Z,12.89
2023-04-09T08:00:23.736Z,12.84
2023-04-09T08:02:57.349Z,12.86
2023-04-09T08:05:25.587Z,12.88
2023-04-09T08:07:57.347Z,12.86
2023-04-09T08:10:24.699Z,12.85
2023-04-09T08:12:51.954Z,12.85
2023-04-09T08:15:19.784Z,12.88
2023-04-09T08:17:48.720Z,12.94
2023-04-09T08:20:16.781Z,13.00
2023-04-09T08:22:46.271Z,13.06
2023-04-09T08:25:13.845Z,13.08
2023-04-09T08:27:41.442Z,13.03
2023-04-09T08:30:10.702Z,12.99
2023-04-09T08:32:39.564Z,13.02
2023-04-09T08:35:07.763Z,13.04
2023-04-09T08:37:35.129Z,13.04
2023-04-09T08:40:02.993Z,13.02
2023-04-09T08:42:31.053Z,13.01
2023-04-09T08:45:00.571Z,13.02
2023-04-09T08:47:27.913Z,12.99
2023-04-09T08:49:55.848Z,12.99
2023-04-09T08:52:34.191Z,12.99
2023-04-09T08:55:01.927Z,12.97
2023-04-09T08:57:29.515Z,12.96
2023-04-09T08:59:58.329Z,12.94
2023-04-09T09:02:26.645Z,12.92
2023-04-09T09:05:00.202Z,12.88
2023-04-09T09:07:28.037Z,12.88
2023-04-09T09:09:58.998Z,12.89
2023-04-09T09:12:33.506Z,12.88
2023-04-09T09:15:01.276Z,12.87
2023-04-09T09:17:29.913Z,12.87
2023-04-09T09:19:58.020Z,12.91
2023-04-09T09:22:30.801Z,12.96
2023-04-09T09:24:58.607Z,13.02
2023-04-09T09:27:36.783Z,13.02
2023-04-09T09:30:05.537Z,13.05
2023-04-09T09:32:32.901Z,13.06
2023-04-09T09:35:03.773Z,13.07
2023-04-09T09:37:31.565Z,13.09
2023-04-09T09:39:59.181Z,13.12
2023-04-09T09:42:27.569Z,13.15
2023-04-09T09:44:56.249Z,13.17
2023-04-09T09:47:24.963Z,13.23
2023-04-09T09:49:52.333Z,13.34
2023-04-09T09:52:26.625Z,13.46
2023-04-09T09:54:55.437Z,13.54
2023-04-09T09:57:24.625Z,13.61
2023-04-09T09:59:54.622Z,13.66
2023-04-09T10:02:23.255Z,13.70
2023-04-09T10:04:52.370Z,13.73
2023-04-09T10:07:21.392Z,13.73
2023-04-09T10:09:50.370Z,13.73
2023-04-09T10:12:18.956Z,13.75
2023-04-09T10:14:51.536Z,13.77
2023-04-09T10:17:19.178Z,13.82
2023-04-09T10:19:55.390Z,13.86
2023-04-09T10:22:23.231Z,13.89
2023-04-09T10:24:52.416Z,13.98
2023-04-09T10:27:20.099Z,14.07
2023-04-09T10:29:48.357Z,14.13
2023-04-09T10:32:22.845Z,14.14
2023-04-09T10:35:10.103Z,14.07
2023-04-09T10:37:37.352Z,14.01
2023-04-09T10:40:05.734Z,13.98
2023-04-09T10:42:38.509Z,13.96
2023-04-09T10:45:13.753Z,13.94
2023-04-09T10:47:48.211Z,13.93
2023-04-09T10:50:18.956Z,13.93
2023-04-09T10:52:47.508Z,13.92
2023-04-09T10:55:38.605Z,13.88
2023-04-09T10:58:09.745Z,13.85
2023-04-09T11:00:44.688Z,13.80
2023-04-09T11:03:23.842Z,13.72
2023-04-09T11:06:06.845Z,13.62
2023-04-09T11:08:39.055Z,13.53
2023-04-09T11:11:07.470Z,13.50
2023-04-09T11:13:41.242Z,13.50
2023-04-09T11:16:12.263Z,13.51
2023-04-09T11:18:55.800Z,13.55
2023-04-09T11:21:27.339Z,13.53
2023-04-09T11:24:01.303Z,13.50
2023-04-09T11:26:35.588Z,13.47
2023-04-09T11:29:09.543Z,13.44
2023-04-09T11:31:39.076Z,13.40
2023-04-09T11:34:27.714Z,13.34
2023-04-09T11:36:58.559Z,13.26
2023-04-09T11:39:29.637Z,13.18
2023-04-09T11:41:57.964Z,13.12
2023-04-09T11:44:35.301Z,13.09
2023-04-09T11:47:12.501Z,13.10
2023-04-09T11:49:42.359Z,13.13
2023-04-09T11:52:17.744Z,13.20
2023-04-09T11:54:53.734Z,13.29
2023-04-09T11:57:44.580Z,13.43
2023-04-09T12:00:13.759Z,13.59
2023-04-09T12:03:02.836Z,13.73
2023-04-09T12:05:49.277Z,13.80
2023-04-09T12:08:22.297Z,13.81
2023-04-09T12:11:03.847Z,13.74
2023-04-09T12:13:31.939Z,13.76
2023-04-09T12:16:00.525Z,13.83
2023-04-09T12:18:30.460Z,13.93
2023-04-09T12:21:02.157Z,14.02
2023-04-09T12:23:38.578Z,14.07
2023-04-09T12:26:11.246Z,14.09
2023-04-09T12:28:38.907Z,14.08
2023-04-09T12:31:10.552Z,14.09
2023-04-09T12:33:50.074Z,14.09
2023-04-09T12:36:17.244Z,14.05
2023-04-09T12:38:45.006Z,13.97
2023-04-09T12:41:12.974Z,13.91
2023-04-09T12:43:44.216Z,13.89
2023-04-09T12:46:13.512Z,13.87
2023-04-09T12:48:42.627Z,13.81
2023-04-09T12:51:11.922Z,13.74
2023-04-09T12:53:41.728Z,13.69
2023-04-09T12:56:10.002Z,13.69
2023-04-09T12:58:38.865Z,13.68
2023-04-09T13:01:07.312Z,13.65
2023-04-09T13:03:35.934Z,13.59
2023-04-09T13:06:07.857Z,13.53
2023-04-09T13:08:35.585Z,13.49
2023-04-09T13:11:04.065Z,13.44
2023-04-09T13:13:34.386Z,13.41
2023-04-09T13:16:03.763Z,13.42
2023-04-09T13:18:32.446Z,13.41
2023-04-09T13:20:59.823Z,13.37
2023-04-09T13:23:27.490Z,13.33
2023-04-09T13:25:55.000Z,13.30
2023-04-09T13:28:22.511Z,13.32
2023-04-09T13:30:51.256Z,13.37
2023-04-09T13:33:38.922Z,13.40
2023-04-09T13:36:08.042Z,13.39
2023-04-09T13:38:35.807Z,13.31
2023-04-09T13:41:05.630Z,13.20
2023-04-09T13:43:34.992Z,13.14
2023-04-09T13:46:05.462Z,13.14
2023-04-09T13:48:35.848Z,13.18
2023-04-09T13:51:05.553Z,13.19
2023-04-09T13:53:33.125Z,13.20
2023-04-09T13:56:01.286Z,13.20
2023-04-09T13:58:31.913Z,13.18
2023-04-09T14:01:03.006Z,13.15
2023-04-09T14:03:31.550Z,13.14
2023-04-09T14:05:59.119Z,13.14
2023-04-09T14:08:27.171Z,13.15
2023-04-09T14:10:56.471Z,13.18
2023-04-09T14:13:25.453Z,13.26
2023-04-09T14:15:53.102Z,13.32
2023-04-09T14:18:20.488Z,13.35
2023-04-09T14:20:50.021Z,13.37
2023-04-09T14:23:17.450Z,13.36
2023-04-09T14:25:46.059Z,13.35
2023-04-09T14:28:13.933Z,13.34
2023-04-09T14:30:41.256Z,13.30
2023-04-09T14:33:28.461Z,13.31
2023-04-09T14:35:58.184Z,13.30
2023-04-09T14:38:26.140Z,13.27
2023-04-09T14:40:53.901Z,13.26
2023-04-09T14:43:21.504Z,13.28
2023-04-09T14:45:49.228Z,13.25
2023-04-09T14:48:18.940Z,13.21
2023-04-09T14:50:50.797Z,13.16
2023-04-09T14:53:18.868Z,13.13
2023-04-09T14:56:06.639Z,13.13
2023-04-09T14:58:37.755Z,13.12
2023-04-09T15:01:14.316Z,13.11
2023-04-09T15:04:01.761Z,13.07
2023-04-09T15:06:32.680Z,13.01
2023-04-09T15:09:06.280Z,12.95
2023-04-09T15:11:34.247Z,12.88
2023-04-09T15:14:06.211Z,12.86
2023-04-09T15:16:37.236Z,12.87
2023-04-09T15:19:06.053Z,12.92
2023-04-09T15:21:34.020Z,12.97
2023-04-09T15:24:01.970Z,12.98
2023-04-09T15:26:30.860Z,13.00
2023-04-09T15:29:06.326Z,12.99
2023-04-09T15:31:41.702Z,12.96
2023-04-09T15:34:14.437Z,12.93
2023-04-09T15:36:42.938Z,12.91
2023-04-09T15:39:11.094Z,12.91
2023-04-09T15:41:39.288Z,12.94
2023-04-09T15:44:12.358Z,12.96
2023-04-09T15:46:56.534Z,12.91
2023-04-09T15:49:27.226Z,12.84
2023-04-09T15:51:59.429Z,12.79
2023-04-09T15:54:27.359Z,12.75
2023-04-09T15:57:04.672Z,12.71
2023-04-09T15:59:33.465Z,12.67
2023-04-09T16:02:02.745Z,12.63
2023-04-09T16:04:32.400Z,12.57
2023-04-09T16:07:04.787Z,12.52
2023-04-09T16:09:52.368Z,12.50
2023-04-09T16:12:25.844Z,12.47
2023-04-09T16:15:01.958Z,12.46
2023-04-09T16:17:40.527Z,12.46
2023-04-09T16:20:10.344Z,12.48
2023-04-09T16:22:44.958Z,12.49
2023-04-09T16:25:14.052Z,12.45
2023-04-09T16:27:41.527Z,12.41
2023-04-09T16:30:09.373Z,12.36
2023-04-09T16:32:46.538Z,12.33
2023-04-09T16:35:15.247Z,12.32
2023-04-09T16:37:42.593Z,12.30
2023-04-09T16:40:10.161Z,12.30
2023-04-09T16:42:42.423Z,12.26
2023-04-09T16:45:10.724Z,12.17
2023-04-09T16:47:57.907Z,12.10
2023-04-09T16:50:29.202Z,12.08
2023-04-09T16:52:56.791Z,12.04
2023-04-09T16:55:25.101Z,12.00
2023-04-09T16:57:56.065Z,11.99
2023-04-09T17:00:27.088Z,11.99
2023-04-09T17:02:57.591Z,11.98
2023-04-09T17:05:25.627Z,11.98
2023-04-09T17:07:55.088Z,11.98
2023-04-09T17:10:22.618Z,11.98
2023-04-09T17:12:50.864Z,11.99
2023-04-09T17:15:22.204Z,12.01
2023-04-09T17:17:52.762Z,12.02
2023-04-09T17:20:22.272Z,12.04
2023-04-09T17:23:01.119Z,12.05
2023-04-09T17:25:29.936Z,12.06
2023-04-09T17:28:01.463Z,12.02
2023-04-09T17:30:30.991Z,12.01
2023-04-09T17:33:20.974Z,12.01
2023-04-09T17:36:02.022Z,12.01
2023-04-09T17:38:35.152Z,12.02
2023-04-09T17:41:02.575Z,12.04
2023-04-09T17:43:30.332Z,12.06
2023-04-09T17:46:03.096Z,12.06
2023-04-09T17:48:32.160Z,12.02
2023-04-09T17:51:00.086Z,11.98
2023-04-09T17:53:27.542Z,11.99
2023-04-09T17:55:54.991Z,11.99
2023-04-09T17:58:26.646Z,11.97
2023-04-09T18:00:55.338Z,11.95
2023-04-09T18:03:23.107Z,11.93
2023-04-09T18:05:52.899Z,11.94
2023-04-09T18:08:20.365Z,11.94
2023-04-09T18:11:12.192Z,11.94
2023-04-09T18:13:46.443Z,11.92
2023-04-09T18:16:21.305Z,11.93
2023-04-09T18:18:50.572Z,11.91
2023-04-09T18:21:18.812Z,11.91
2023-04-09T18:23:47.392Z,11.93
2023-04-09T18:26:18.027Z,11.95
2023-04-09T18:28:46.493Z,11.96
2023-04-09T18:31:29.087Z,11.96
2023-04-09T18:33:56.676Z,11.98
2023-04-09T18:36:24.889Z,11.98
2023-04-09T18:38:53.640Z,11.99
2023-04-09T18:41:26.095Z,11.98
2023-04-09T18:43:59.508Z,11.97
2023-04-09T18:46:32.578Z,11.98
2023-04-09T18:49:03.639Z,11.96
2023-04-09T18:51:31.653Z,11.94
2023-04-09T18:54:00.125Z,11.94
2023-04-09T18:56:28.770Z,11.92
2023-04-09T18:58:56.538Z,11.93
2023-04-09T19:01:23.865Z,11.94
2023-04-09T19:03:51.375Z,11.94
2023-04-09T19:06:19.215Z,11.92
2023-04-09T19:08:46.686Z,11.89
2023-04-09T19:11:14.452Z,11.89
2023-04-09T19:13:41.794Z,11.89
2023-04-09T19:16:09.688Z,11.91
2023-04-09T19:18:38.343Z,11.89
2023-04-09T19:21:06.424Z,11.88
2023-04-09T19:23:34.199Z,11.86
2023-04-09T19:26:05.118Z,11.86
2023-04-09T19:28:32.376Z,11.85
2023-04-09T19:31:02.049Z,11.84
2023-04-09T19:33:31.711Z,11.83
2023-04-09T19:36:00.623Z,11.84
2023-04-09T19:38:30.437Z,11.84
2023-04-09T19:41:00.304Z,11.83
2023-04-09T19:43:27.765Z,11.86
2023-04-09T19:45:56.580Z,11.85
2023-04-09T19:48:24.410Z,11.85
2023-04-09T19:50:56.267Z,11.87
2023-04-09T19:53:23.722Z,11.88
2023-04-09T19:55:51.078Z,11.90
2023-04-09T19:58:20.305Z,11.92
2023-04-09T20:00:47.844Z,11.91
2023-04-09T20:03:15.807Z,11.88
2023-04-09T20:05:45.508Z,11.87
2023-04-09T20:08:15.777Z,11.86
2023-04-09T20:10:47.062Z,11.86
2023-04-09T20:13:16.639Z,11.86
2023-04-09T20:15:47.122Z,11.80
2023-04-09T20:18:20.367Z,11.74
2023-04-09T20:20:51.447Z,11.72
2023-04-09T20:23:19.417Z,11.72
2023-04-09T20:25:53.734Z,11.75
2023-04-09T20:28:21.449Z,11.76
2023-04-09T20:30:48.854Z,11.74
2023-04-09T20:33:20.172Z,11.72
2023-04-09T20:35:58.577Z,11.72
2023-04-09T20:38:26.362Z,11.71
2023-04-09T20:40:54.362Z,11.68
2023-04-09T20:43:25.125Z,11.66
2023-04-09T20:46:02.101Z,11.62
2023-04-09T20:48:31.066Z,11.59
2023-04-09T20:50:58.300Z,11.57
2023-04-09T20:53:25.590Z,11.52
2023-04-09T20:55:54.339Z,11.51
2023-04-09T20:58:22.246Z,11.53
2023-04-09T21:00:49.721Z,11.51
2023-04-09T21:03:18.536Z,11.49
2023-04-09T21:05:47.588Z,11.47
2023-04-09T21:08:15.716Z,11.45
2023-04-09T21:10:43.080Z,11.37
2023-04-09T21:13:17.633Z,11.33
2023-04-09T21:15:48.632Z,11.34
2023-04-09T21:18:16.405Z,11.33
2023-04-09T21:20:51.161Z,11.34
2023-04-09T21:23:19.305Z,11.32
2023-04-09T21:25:46.488Z,11.31
2023-04-09T21:28:21.815Z,11.29
2023-04-09T21:30:51.441Z,11.27
2023-04-09T21:33:19.149Z,11.27
2023-04-09T21:35:51.568Z,11.27
2023-04-09T21:38:19.412Z,11.27
2023-04-09T21:40:46.927Z,11.28
2023-04-09T21:43:14.330Z,11.29
2023-04-09T21:45:41.420Z,11.27
2023-04-09T21:48:09.943Z,11.23
2023-04-09T21:50:37.783Z,11.21
2023-04-09T21:53:05.936Z,11.20
2023-04-09T21:55:36.114Z,11.16
2023-04-09T21:58:03.493Z,11.13
2023-04-09T22:00:32.972Z,11.13
2023-04-09T22:03:01.194Z,11.15
2023-04-09T22:05:31.571Z,11.18
2023-04-09T22:07:58.822Z,11.16
2023-04-09T22:10:27.126Z,11.10
2023-04-09T22:12:58.855Z,11.08
2023-04-09T22:15:26.964Z,11.08
2023-04-09T22:17:54.522Z,11.08
2023-04-09T22:20:24.229Z,11.10
2023-04-09T22:22:55.775Z,11.08
2023-04-09T22:25:23.306Z,11.03
2023-04-09T22:27:51.910Z,10.96
2023-04-09T22:30:21.396Z,10.86
2023-04-09T22:33:06.348Z,10.78
2023-04-09T22:35:34.587Z,10.70
2023-04-09T22:38:02.928Z,10.63
2023-04-09T22:40:30.584Z,10.62
2023-04-09T22:42:58.029Z,10.71
2023-04-09T22:45:27.431Z,10.82
2023-04-09T22:47:55.353Z,10.93
2023-04-09T22:50:26.069Z,10.97
2023-04-09T22:52:54.201Z,11.00
2023-04-09T22:55:22.915Z,11.00
2023-04-09T22:57:50.932Z,11.04
2023-04-09T23:00:18.619Z,11.07
2023-04-09T23:02:47.309Z,11.07
2023-04-09T23:05:15.166Z,11.04
2023-04-09T23:07:44.638Z,11.03
2023-04-09T23:10:16.876Z,11.04
2023-04-09T23:12:58.527Z,11.05
2023-04-09T23:15:26.291Z,11.07
2023-04-09T23:17:54.223Z,11.10
2023-04-09T23:20:21.723Z,11.13
2023-04-09T23:22:49.278Z,11.15
2023-04-09T23:25:22.268Z,11.16
2023-04-09T23:27:50.749Z,11.17
2023-04-09T23:30:19.940Z,11.20
2023-04-09T23:32:57.029Z,11.24
2023-04-09T23:35:25.446Z,11.27
2023-04-09T23:37:55.745Z,11.31
2023-04-09T23:40:22.976Z,11.35
2023-04-09T23:42:50.638Z,11.40
2023-04-09T23:45:22.834Z,11.42
2023-04-09T23:47:50.227Z,11.42
2023-04-09T23:50:22.844Z,11.41
2023-04-09T23:52:51.054Z,11.42
2023-04-09T23:55:18.576Z,11.41
2023-04-09T23:57:47.684Z,11.40
